sensor_id;sensor_type;location;lat;lon;timestamp;P1;durP1;ratioP1;P2;durP2;ratioP2
3331;SDS011;1678;50.94845400;5.30809100;2022-08-02T00:01:44;6.17;;;1.87;;
3331;SDS011;1678;50.94845400;5.30809100;2022-08-02T00:04:12;2.10;;;2.00;;
3331;SDS011;1678;50.94845400;5.30809100;2022-08-02T00:06:41;5.60;;;2.40;;
3331;SDS011;1678;50.94845400;5.30809100;2022-08-02T00:09:12;2.30;;;2.20;;
3331;SDS011;1678;50.94845400;5.30809100;2022-08-02T00:11:41;2.43;;;2.23;;
3331;SDS011;1678;50.94845400;5.30809100;2022-08-02T00:14:09;6.30;;;2.20;;
3331;SDS011;1678;50.94845400;5.30809100;2022-08-02T00:16:37;1.67;;;1.53;;
3331;SDS011;1678;50.94845400;5.30809100;2022-08-02T00:19:07;2.53;;;2.23;;
3331;SDS011;1678;50.94845400;5.30809100;2022-08-02T00:21:35;3.93;;;3.63;;
3331;SDS011;1678;50.94845400;5.30809100;2022-08-02T00:24:03;6.40;;;3.23;;
3331;SDS011;1678;50.94845400;5.30809100;2022-08-02T00:26:52;2.60;;;2.40;;
3331;SDS011;1678;50.94845400;5.30809100;2022-08-02T00:29:20;3.80;;;3.07;;
3331;SDS011;1678;50.94845400;5.30809100;2022-08-02T00:31:48;3.93;;;3.73;;
3331;SDS011;1678;50.94845400;5.30809100;2022-08-02T00:34:17;3.40;;;3.10;;
3331;SDS011;1678;50.94845400;5.30809100;2022-08-02T00:36:56;3.20;;;2.67;;
3331;SDS011;1678;50.94845400;5.30809100;2022-08-02T00:39:24;3.63;;;3.43;;
3331;SDS011;1678;50.94845400;5.30809100;2022-08-02T00:42:01;4.47;;;4.17;;
3331;SDS011;1678;50.94845400;5.30809100;2022-08-02T00:44:30;3.33;;;3.23;;
3331;SDS011;1678;50.94845400;5.30809100;2022-08-02T00:46:58;3.57;;;2.97;;
3331;SDS011;1678;50.94845400;5.30809100;2022-08-02T00:49:27;3.37;;;2.70;;
3331;SDS011;1678;50.94845400;5.30809100;2022-08-02T00:51:58;5.23;;;3.50;;
3331;SDS011;1678;50.94845400;5.30809100;2022-08-02T00:54:26;3.13;;;2.93;;
3331;SDS011;1678;50.94845400;5.30809100;2022-08-02T00:56:54;7.10;;;3.00;;
3331;SDS011;1678;50.94845400;5.30809100;2022-08-02T00:59:23;4.57;;;3.27;;
3331;SDS011;1678;50.94845400;5.30809100;2022-08-02T01:01:51;3.03;;;2.70;;
3331;SDS011;1678;50.94845400;5.30809100;2022-08-02T01:04:23;3.40;;;3.20;;
3331;SDS011;1678;50.94845400;5.30809100;2022-08-02T01:06:58;4.47;;;4.07;;
3331;SDS011;1678;50.94845400;5.30809100;2022-08-02T01:09:38;3.10;;;3.00;;
3331;SDS011;1678;50.94845400;5.30809100;2022-08-02T01:12:07;11.97;;;3.00;;
3331;SDS011;1678;50.94845400;5.30809100;2022-08-02T01:14:37;5.20;;;4.00;;
3331;SDS011;1678;50.94845400;5.30809100;2022-08-02T01:17:07;10.17;;;4.40;;
3331;SDS011;1678;50.94845400;5.30809100;2022-08-02T01:19:45;4.60;;;3.80;;
3331;SDS011;1678;50.94845400;5.30809100;2022-08-02T01:25:49;3.13;;;3.03;;
3331;SDS011;1678;50.94845400;5.30809100;2022-08-02T01:28:31;7.20;;;3.30;;
3331;SDS011;1678;50.94845400;5.30809100;2022-08-02T01:31:03;11.33;;;3.93;;
3331;SDS011;1678;50.94845400;5.30809100;2022-08-02T01:33:39;4.23;;;3.57;;
3331;SDS011;1678;50.94845400;5.30809100;2022-08-02T01:36:10;6.20;;;3.33;;
3331;SDS011;1678;50.94845400;5.30809100;2022-08-02T01:38:41;8.33;;;3.23;;
3331;SDS011;1678;50.94845400;5.30809100;2022-08-02T01:41:14;5.33;;;3.30;;
3331;SDS011;1678;50.94845400;5.30809100;2022-08-02T01:43:46;5.30;;;3.97;;
3331;SDS011;1678;50.94845400;5.30809100;2022-08-02T01:46:16;7.70;;;4.60;;
3331;SDS011;1678;50.94845400;5.30809100;2022-08-02T01:48:47;8.20;;;4.30;;
3331;SDS011;1678;50.94845400;5.30809100;2022-08-02T01:51:17;4.27;;;4.03;;
3331;SDS011;1678;50.94845400;5.30809100;2022-08-02T01:54:07;6.40;;;3.80;;
3331;SDS011;1678;50.94845400;5.30809100;2022-08-02T01:56:38;5.50;;;4.10;;
3331;SDS011;1678;50.94845400;5.30809100;2022-08-02T01:59:10;9.37;;;5.30;;
3331;SDS011;1678;50.94845400;5.30809100;2022-08-02T02:01:42;4.13;;;3.13;;
3331;SDS011;1678;50.94845400;5.30809100;2022-08-02T02:04:12;8.33;;;4.00;;
3331;SDS011;1678;50.94845400;5.30809100;2022-08-02T02:06:42;4.60;;;4.20;;
3331;SDS011;1678;50.94845400;5.30809100;2022-08-02T02:09:13;9.90;;;3.20;;
3331;SDS011;1678;50.94845400;5.30809100;2022-08-02T02:11:42;4.83;;;2.97;;
3331;SDS011;1678;50.94845400;5.30809100;2022-08-02T02:14:33;6.93;;;4.60;;
3331;SDS011;1678;50.94845400;5.30809100;2022-08-02T02:17:03;8.90;;;4.30;;
3331;SDS011;1678;50.94845400;5.30809100;2022-08-02T02:19:32;11.20;;;3.60;;
3331;SDS011;1678;50.94845400;5.30809100;2022-08-02T02:22:02;4.53;;;3.70;;
3331;SDS011;1678;50.94845400;5.30809100;2022-08-02T02:24:32;11.30;;;3.13;;
3331;SDS011;1678;50.94845400;5.30809100;2022-08-02T02:27:02;4.90;;;4.23;;
3331;SDS011;1678;50.94845400;5.30809100;2022-08-02T02:29:32;8.93;;;3.90;;
3331;SDS011;1678;50.94845400;5.30809100;2022-08-02T02:32:03;4.57;;;4.20;;
3331;SDS011;1678;50.94845400;5.30809100;2022-08-02T02:34:34;14.80;;;6.43;;
3331;SDS011;1678;50.94845400;5.30809100;2022-08-02T02:37:07;6.93;;;4.27;;
3331;SDS011;1678;50.94845400;5.30809100;2022-08-02T02:39:40;5.13;;;4.87;;
3331;SDS011;1678;50.94845400;5.30809100;2022-08-02T02:42:12;4.63;;;4.37;;
3331;SDS011;1678;50.94845400;5.30809100;2022-08-02T02:44:45;6.90;;;4.53;;
3331;SDS011;1678;50.94845400;5.30809100;2022-08-02T02:47:15;6.67;;;4.43;;
3331;SDS011;1678;50.94845400;5.30809100;2022-08-02T02:49:45;8.80;;;4.30;;
3331;SDS011;1678;50.94845400;5.30809100;2022-08-02T02:52:14;4.77;;;4.37;;
3331;SDS011;1678;50.94845400;5.30809100;2022-08-02T02:54:44;5.13;;;4.73;;
3331;SDS011;1678;50.94845400;5.30809100;2022-08-02T02:57:15;5.57;;;5.17;;
3331;SDS011;1678;50.94845400;5.30809100;2022-08-02T02:59:46;5.63;;;5.07;;
3331;SDS011;1678;50.94845400;5.30809100;2022-08-02T03:02:15;7.30;;;5.20;;
3331;SDS011;1678;50.94845400;5.30809100;2022-08-02T03:04:44;5.20;;;4.90;;
3331;SDS011;1678;50.94845400;5.30809100;2022-08-02T03:07:22;8.93;;;5.67;;
3331;SDS011;1678;50.94845400;5.30809100;2022-08-02T03:09:51;6.23;;;5.60;;
3331;SDS011;1678;50.94845400;5.30809100;2022-08-02T03:12:21;8.43;;;5.03;;
3331;SDS011;1678;50.94845400;5.30809100;2022-08-02T03:14:59;7.77;;;4.50;;
3331;SDS011;1678;50.94845400;5.30809100;2022-08-02T03:17:41;4.30;;;4.00;;
3331;SDS011;1678;50.94845400;5.30809100;2022-08-02T03:20:11;12.80;;;5.27;;
3331;SDS011;1678;50.94845400;5.30809100;2022-08-02T03:22:41;3.97;;;3.63;;
3331;SDS011;1678;50.94845400;5.30809100;2022-08-02T03:25:10;5.47;;;5.03;;
3331;SDS011;1678;50.94845400;5.30809100;2022-08-02T03:27:39;4.93;;;4.63;;
3331;SDS011;1678;50.94845400;5.30809100;2022-08-02T03:30:10;6.47;;;5.10;;
3331;SDS011;1678;50.94845400;5.30809100;2022-08-02T03:32:39;5.30;;;4.70;;
3331;SDS011;1678;50.94845400;5.30809100;2022-08-02T03:35:10;8.93;;;5.67;;
3331;SDS011;1678;50.94845400;5.30809100;2022-08-02T03:37:48;8.40;;;4.13;;
3331;SDS011;1678;50.94845400;5.30809100;2022-08-02T03:40:18;5.03;;;4.63;;
3331;SDS011;1678;50.94845400;5.30809100;2022-08-02T03:42:48;5.13;;;4.30;;
3331;SDS011;1678;50.94845400;5.30809100;2022-08-02T03:45:18;4.87;;;4.30;;
3331;SDS011;1678;50.94845400;5.30809100;2022-08-02T03:47:47;6.63;;;5.07;;
3331;SDS011;1678;50.94845400;5.30809100;2022-08-02T03:50:16;5.83;;;5.40;;
3331;SDS011;1678;50.94845400;5.30809100;2022-08-02T03:52:48;4.37;;;4.10;;
3331;SDS011;1678;50.94845400;5.30809100;2022-08-02T03:55:16;9.30;;;5.27;;
3331;SDS011;1678;50.94845400;5.30809100;2022-08-02T03:57:44;10.00;;;5.20;;
3331;SDS011;1678;50.94845400;5.30809100;2022-08-02T04:00:16;9.77;;;4.80;;
3331;SDS011;1678;50.94845400;5.30809100;2022-08-02T04:02:47;9.97;;;4.43;;
3331;SDS011;1678;50.94845400;5.30809100;2022-08-02T04:05:16;5.07;;;4.67;;
3331;SDS011;1678;50.94845400;5.30809100;2022-08-02T04:07:45;7.63;;;4.73;;
3331;SDS011;1678;50.94845400;5.30809100;2022-08-02T04:10:34;6.67;;;6.17;;
3331;SDS011;1678;50.94845400;5.30809100;2022-08-02T04:13:19;5.77;;;5.37;;
3331;SDS011;1678;50.94845400;5.30809100;2022-08-02T04:15:51;7.47;;;6.00;;
3331;SDS011;1678;50.94845400;5.30809100;2022-08-02T04:18:24;5.50;;;5.00;;
3331;SDS011;1678;50.94845400;5.30809100;2022-08-02T04:20:55;5.93;;;5.43;;
3331;SDS011;1678;50.94845400;5.30809100;2022-08-02T04:23:25;9.83;;;4.80;;
3331;SDS011;1678;50.94845400;5.30809100;2022-08-02T04:25:56;7.70;;;5.17;;
3331;SDS011;1678;50.94845400;5.30809100;2022-08-02T04:28:25;4.07;;;3.77;;
3331;SDS011;1678;50.94845400;5.30809100;2022-08-02T04:30:56;6.20;;;4.63;;
3331;SDS011;1678;50.94845400;5.30809100;2022-08-02T04:33:26;5.17;;;4.87;;
3331;SDS011;1678;50.94845400;5.30809100;2022-08-02T04:35:54;4.87;;;4.47;;
3331;SDS011;1678;50.94845400;5.30809100;2022-08-02T04:38:25;6.07;;;5.70;;
3331;SDS011;1678;50.94845400;5.30809100;2022-08-02T04:40:53;11.13;;;5.93;;
3331;SDS011;1678;50.94845400;5.30809100;2022-08-02T04:43:22;10.50;;;6.93;;
3331;SDS011;1678;50.94845400;5.30809100;2022-08-02T04:45:52;13.77;;;6.77;;
3331;SDS011;1678;50.94845400;5.30809100;2022-08-02T04:48:22;7.33;;;6.63;;
3331;SDS011;1678;50.94845400;5.30809100;2022-08-02T04:50:50;8.73;;;6.10;;
3331;SDS011;1678;50.94845400;5.30809100;2022-08-02T04:53:19;9.00;;;6.60;;
3331;SDS011;1678;50.94845400;5.30809100;2022-08-02T04:55:47;6.60;;;6.00;;
3331;SDS011;1678;50.94845400;5.30809100;2022-08-02T04:58:15;6.50;;;6.10;;
3331;SDS011;1678;50.94845400;5.30809100;2022-08-02T05:01:03;7.43;;;6.80;;
3331;SDS011;1678;50.94845400;5.30809100;2022-08-02T05:03:33;6.97;;;6.30;;
3331;SDS011;1678;50.94845400;5.30809100;2022-08-02T05:06:01;5.87;;;5.37;;
3331;SDS011;1678;50.94845400;5.30809100;2022-08-02T05:08:44;8.13;;;5.77;;
3331;SDS011;1678;50.94845400;5.30809100;2022-08-02T05:11:18;6.70;;;6.03;;
3331;SDS011;1678;50.94845400;5.30809100;2022-08-02T05:13:46;11.07;;;7.17;;
3331;SDS011;1678;50.94845400;5.30809100;2022-08-02T05:16:24;7.47;;;6.60;;
3331;SDS011;1678;50.94845400;5.30809100;2022-08-02T05:18:58;6.63;;;6.07;;
3331;SDS011;1678;50.94845400;5.30809100;2022-08-02T05:21:27;6.57;;;5.87;;
3331;SDS011;1678;50.94845400;5.30809100;2022-08-02T05:23:57;6.87;;;5.43;;
3331;SDS011;1678;50.94845400;5.30809100;2022-08-02T05:26:25;5.17;;;4.97;;
3331;SDS011;1678;50.94845400;5.30809100;2022-08-02T05:28:53;5.47;;;5.07;;
3331;SDS011;1678;50.94845400;5.30809100;2022-08-02T05:31:21;7.03;;;6.33;;
3331;SDS011;1678;50.94845400;5.30809100;2022-08-02T05:33:49;5.90;;;4.70;;
3331;SDS011;1678;50.94845400;5.30809100;2022-08-02T05:36:19;7.07;;;5.57;;
3331;SDS011;1678;50.94845400;5.30809100;2022-08-02T05:38:47;5.67;;;5.27;;
3331;SDS011;1678;50.94845400;5.30809100;2022-08-02T05:41:16;7.93;;;5.63;;
3331;SDS011;1678;50.94845400;5.30809100;2022-08-02T05:43:44;6.63;;;6.20;;
3331;SDS011;1678;50.94845400;5.30809100;2022-08-02T05:46:13;6.53;;;5.93;;
3331;SDS011;1678;50.94845400;5.30809100;2022-08-02T05:48:42;5.57;;;5.17;;
3331;SDS011;1678;50.94845400;5.30809100;2022-08-02T05:51:11;4.93;;;4.50;;
3331;SDS011;1678;50.94845400;5.30809100;2022-08-02T05:53:45;4.97;;;4.70;;
3331;SDS011;1678;50.94845400;5.30809100;2022-08-02T05:56:24;4.63;;;4.23;;
3331;SDS011;1678;50.94845400;5.30809100;2022-08-02T05:58:59;14.23;;;4.97;;
3331;SDS011;1678;50.94845400;5.30809100;2022-08-02T06:01:31;5.63;;;5.10;;
3331;SDS011;1678;50.94845400;5.30809100;2022-08-02T06:04:04;6.13;;;5.53;;
3331;SDS011;1678;50.94845400;5.30809100;2022-08-02T06:06:33;4.63;;;4.20;;
3331;SDS011;1678;50.94845400;5.30809100;2022-08-02T06:09:06;5.90;;;5.37;;
3331;SDS011;1678;50.94845400;5.30809100;2022-08-02T06:11:37;5.53;;;5.23;;
3331;SDS011;1678;50.94845400;5.30809100;2022-08-02T06:14:27;5.93;;;5.13;;
3331;SDS011;1678;50.94845400;5.30809100;2022-08-02T06:16:58;8.57;;;5.50;;
3331;SDS011;1678;50.94845400;5.30809100;2022-08-02T06:19:28;5.87;;;5.20;;
3331;SDS011;1678;50.94845400;5.30809100;2022-08-02T06:22:18;6.50;;;5.47;;
3331;SDS011;1678;50.94845400;5.30809100;2022-08-02T06:25:04;6.00;;;5.20;;
3331;SDS011;1678;50.94845400;5.30809100;2022-08-02T06:27:52;5.53;;;5.13;;
3331;SDS011;1678;50.94845400;5.30809100;2022-08-02T06:30:21;7.20;;;4.90;;
3331;SDS011;1678;50.94845400;5.30809100;2022-08-02T06:32:50;6.20;;;5.60;;
3331;SDS011;1678;50.94845400;5.30809100;2022-08-02T06:35:19;6.03;;;5.00;;
3331;SDS011;1678;50.94845400;5.30809100;2022-08-02T06:37:49;6.97;;;5.43;;
3331;SDS011;1678;50.94845400;5.30809100;2022-08-02T06:40:26;4.90;;;4.47;;
3331;SDS011;1678;50.94845400;5.30809100;2022-08-02T06:43:10;4.07;;;3.83;;
3331;SDS011;1678;50.94845400;5.30809100;2022-08-02T06:45:39;4.97;;;4.63;;
3331;SDS011;1678;50.94845400;5.30809100;2022-08-02T06:48:07;4.20;;;4.00;;
3331;SDS011;1678;50.94845400;5.30809100;2022-08-02T06:50:36;5.80;;;5.20;;
3331;SDS011;1678;50.94845400;5.30809100;2022-08-02T06:53:05;4.37;;;4.17;;
3331;SDS011;1678;50.94845400;5.30809100;2022-08-02T06:55:35;3.47;;;3.37;;
3331;SDS011;1678;50.94845400;5.30809100;2022-08-02T06:58:09;5.50;;;3.23;;
3331;SDS011;1678;50.94845400;5.30809100;2022-08-02T07:00:37;3.20;;;2.90;;
3331;SDS011;1678;50.94845400;5.30809100;2022-08-02T07:03:05;6.00;;;3.03;;
3331;SDS011;1678;50.94845400;5.30809100;2022-08-02T07:05:33;2.90;;;2.70;;
3331;SDS011;1678;50.94845400;5.30809100;2022-08-02T07:08:02;2.30;;;2.20;;
3331;SDS011;1678;50.94845400;5.30809100;2022-08-02T07:10:30;2.67;;;2.47;;
3331;SDS011;1678;50.94845400;5.30809100;2022-08-02T07:12:59;2.30;;;2.30;;
3331;SDS011;1678;50.94845400;5.30809100;2022-08-02T07:15:28;3.43;;;2.90;;
3331;SDS011;1678;50.94845400;5.30809100;2022-08-02T07:17:56;2.77;;;2.67;;
3331;SDS011;1678;50.94845400;5.30809100;2022-08-02T07:20:24;2.90;;;2.63;;
3331;SDS011;1678;50.94845400;5.30809100;2022-08-02T07:22:52;2.00;;;1.90;;
3331;SDS011;1678;50.94845400;5.30809100;2022-08-02T07:25:20;2.80;;;2.67;;
3331;SDS011;1678;50.94845400;5.30809100;2022-08-02T07:27:48;2.80;;;2.30;;
3331;SDS011;1678;50.94845400;5.30809100;2022-08-02T07:30:18;3.77;;;1.30;;
3331;SDS011;1678;50.94845400;5.30809100;2022-08-02T07:32:46;1.83;;;1.83;;
3331;SDS011;1678;50.94845400;5.30809100;2022-08-02T07:35:14;2.80;;;1.63;;
3331;SDS011;1678;50.94845400;5.30809100;2022-08-02T07:37:45;2.63;;;2.00;;
3331;SDS011;1678;50.94845400;5.30809100;2022-08-02T07:40:27;1.60;;;1.60;;
3331;SDS011;1678;50.94845400;5.30809100;2022-08-02T07:42:55;2.00;;;1.77;;
3331;SDS011;1678;50.94845400;5.30809100;2022-08-02T07:45:30;1.80;;;1.70;;
3331;SDS011;1678;50.94845400;5.30809100;2022-08-02T07:48:01;1.33;;;1.23;;
3331;SDS011;1678;50.94845400;5.30809100;2022-08-02T07:50:30;3.27;;;1.60;;
3331;SDS011;1678;50.94845400;5.30809100;2022-08-02T07:52:59;2.60;;;1.83;;
3331;SDS011;1678;50.94845400;5.30809100;2022-08-02T07:55:27;3.13;;;1.70;;
3331;SDS011;1678;50.94845400;5.30809100;2022-08-02T07:58:04;1.60;;;1.60;;
3331;SDS011;1678;50.94845400;5.30809100;2022-08-02T08:00:40;2.73;;;2.10;;
3331;SDS011;1678;50.94845400;5.30809100;2022-08-02T08:03:09;1.63;;;1.53;;
3331;SDS011;1678;50.94845400;5.30809100;2022-08-02T08:05:37;6.53;;;1.90;;
3331;SDS011;1678;50.94845400;5.30809100;2022-08-02T08:08:06;1.57;;;1.27;;
3331;SDS011;1678;50.94845400;5.30809100;2022-08-02T08:10:40;4.20;;;1.97;;
3331;SDS011;1678;50.94845400;5.30809100;2022-08-02T08:13:08;1.47;;;1.43;;
3331;SDS011;1678;50.94845400;5.30809100;2022-08-02T08:15:36;1.50;;;1.40;;
3331;SDS011;1678;50.94845400;5.30809100;2022-08-02T08:18:06;2.43;;;1.70;;
3331;SDS011;1678;50.94845400;5.30809100;2022-08-02T08:20:36;1.33;;;1.33;;
3331;SDS011;1678;50.94845400;5.30809100;2022-08-02T08:23:04;1.97;;;1.87;;
3331;SDS011;1678;50.94845400;5.30809100;2022-08-02T08:25:32;2.00;;;1.90;;
3331;SDS011;1678;50.94845400;5.30809100;2022-08-02T08:28:07;1.50;;;1.50;;
3331;SDS011;1678;50.94845400;5.30809100;2022-08-02T08:30:35;2.00;;;1.80;;
3331;SDS011;1678;50.94845400;5.30809100;2022-08-02T08:33:03;2.23;;;2.13;;
3331;SDS011;1678;50.94845400;5.30809100;2022-08-02T08:35:33;2.27;;;2.17;;
3331;SDS011;1678;50.94845400;5.30809100;2022-08-02T08:38:01;2.20;;;2.10;;
3331;SDS011;1678;50.94845400;5.30809100;2022-08-02T08:40:33;3.00;;;2.33;;
3331;SDS011;1678;50.94845400;5.30809100;2022-08-02T08:43:02;4.00;;;1.53;;
3331;SDS011;1678;50.94845400;5.30809100;2022-08-02T08:45:31;2.17;;;2.07;;
3331;SDS011;1678;50.94845400;5.30809100;2022-08-02T08:48:00;2.53;;;2.33;;
3331;SDS011;1678;50.94845400;5.30809100;2022-08-02T08:50:34;1.10;;;1.10;;
3331;SDS011;1678;50.94845400;5.30809100;2022-08-02T08:53:04;1.93;;;1.80;;
3331;SDS011;1678;50.94845400;5.30809100;2022-08-02T08:55:37;1.40;;;1.40;;
3331;SDS011;1678;50.94845400;5.30809100;2022-08-02T08:58:05;1.40;;;1.40;;
3331;SDS011;1678;50.94845400;5.30809100;2022-08-02T09:00:34;1.83;;;1.73;;
3331;SDS011;1678;50.94845400;5.30809100;2022-08-02T09:03:02;7.73;;;2.20;;
3331;SDS011;1678;50.94845400;5.30809100;2022-08-02T09:05:34;1.40;;;1.30;;
3331;SDS011;1678;50.94845400;5.30809100;2022-08-02T09:08:03;3.60;;;2.17;;
3331;SDS011;1678;50.94845400;5.30809100;2022-08-02T09:10:35;1.10;;;1.10;;
3331;SDS011;1678;50.94845400;5.30809100;2022-08-02T09:13:06;3.07;;;1.40;;
3331;SDS011;1678;50.94845400;5.30809100;2022-08-02T09:15:57;1.23;;;1.23;;
3331;SDS011;1678;50.94845400;5.30809100;2022-08-02T09:18:39;1.67;;;1.67;;
3331;SDS011;1678;50.94845400;5.30809100;2022-08-02T09:21:12;2.53;;;1.13;;
3331;SDS011;1678;50.94845400;5.30809100;2022-08-02T09:23:42;0.90;;;0.90;;
3331;SDS011;1678;50.94845400;5.30809100;2022-08-02T09:26:12;1.53;;;1.53;;
3331;SDS011;1678;50.94845400;5.30809100;2022-08-02T09:28:41;0.90;;;0.90;;
3331;SDS011;1678;50.94845400;5.30809100;2022-08-02T09:31:11;1.17;;;1.17;;
3331;SDS011;1678;50.94845400;5.30809100;2022-08-02T09:33:41;1.30;;;1.30;;
3331;SDS011;1678;50.94845400;5.30809100;2022-08-02T09:36:12;2.87;;;2.67;;
3331;SDS011;1678;50.94845400;5.30809100;2022-08-02T09:38:51;2.00;;;1.40;;
3331;SDS011;1678;50.94845400;5.30809100;2022-08-02T09:41:22;2.00;;;1.10;;
3331;SDS011;1678;50.94845400;5.30809100;2022-08-02T09:43:51;0.83;;;0.83;;
3331;SDS011;1678;50.94845400;5.30809100;2022-08-02T09:46:32;1.77;;;1.77;;
3331;SDS011;1678;50.94845400;5.30809100;2022-08-02T09:49:05;1.40;;;1.40;;
3331;SDS011;1678;50.94845400;5.30809100;2022-08-02T09:51:37;1.97;;;1.77;;
3331;SDS011;1678;50.94845400;5.30809100;2022-08-02T09:54:07;1.73;;;1.17;;
3331;SDS011;1678;50.94845400;5.30809100;2022-08-02T09:56:44;3.30;;;1.97;;
3331;SDS011;1678;50.94845400;5.30809100;2022-08-02T09:59:15;2.73;;;1.37;;
3331;SDS011;1678;50.94845400;5.30809100;2022-08-02T10:01:45;4.37;;;2.00;;
3331;SDS011;1678;50.94845400;5.30809100;2022-08-02T10:04:27;3.73;;;1.80;;
3331;SDS011;1678;50.94845400;5.30809100;2022-08-02T10:07:01;2.27;;;1.83;;
3331;SDS011;1678;50.94845400;5.30809100;2022-08-02T10:09:30;5.77;;;1.80;;
3331;SDS011;1678;50.94845400;5.30809100;2022-08-02T10:11:59;2.40;;;1.63;;
3331;SDS011;1678;50.94845400;5.30809100;2022-08-02T10:14:30;1.90;;;1.80;;
3331;SDS011;1678;50.94845400;5.30809100;2022-08-02T10:17:00;6.10;;;1.90;;
3331;SDS011;1678;50.94845400;5.30809100;2022-08-02T10:19:30;2.33;;;2.20;;
3331;SDS011;1678;50.94845400;5.30809100;2022-08-02T10:22:21;2.50;;;1.83;;
3331;SDS011;1678;50.94845400;5.30809100;2022-08-02T10:24:50;1.50;;;1.50;;
3331;SDS011;1678;50.94845400;5.30809100;2022-08-02T10:27:19;1.97;;;1.97;;
3331;SDS011;1678;50.94845400;5.30809100;2022-08-02T10:29:50;1.03;;;1.03;;
3331;SDS011;1678;50.94845400;5.30809100;2022-08-02T10:32:23;2.53;;;2.37;;
3331;SDS011;1678;50.94845400;5.30809100;2022-08-02T10:34:56;4.33;;;1.83;;
3331;SDS011;1678;50.94845400;5.30809100;2022-08-02T10:37:47;2.87;;;1.60;;
3331;SDS011;1678;50.94845400;5.30809100;2022-08-02T10:40:19;1.67;;;1.57;;
3331;SDS011;1678;50.94845400;5.30809100;2022-08-02T10:42:53;2.30;;;2.20;;
3331;SDS011;1678;50.94845400;5.30809100;2022-08-02T10:45:26;1.63;;;1.50;;
3331;SDS011;1678;50.94845400;5.30809100;2022-08-02T10:47:55;5.30;;;1.23;;
3331;SDS011;1678;50.94845400;5.30809100;2022-08-02T10:53:26;3.80;;;1.27;;
3331;SDS011;1678;50.94845400;5.30809100;2022-08-02T10:55:56;5.70;;;1.30;;
3331;SDS011;1678;50.94845400;5.30809100;2022-08-02T10:58:25;4.83;;;1.63;;
3331;SDS011;1678;50.94845400;5.30809100;2022-08-02T11:00:55;1.47;;;1.33;;
3331;SDS011;1678;50.94845400;5.30809100;2022-08-02T11:03:35;1.73;;;0.80;;
3331;SDS011;1678;50.94845400;5.30809100;2022-08-02T11:06:07;1.00;;;1.00;;
3331;SDS011;1678;50.94845400;5.30809100;2022-08-02T11:11:59;2.30;;;1.43;;
3331;SDS011;1678;50.94845400;5.30809100;2022-08-02T11:14:28;3.60;;;1.67;;
3331;SDS011;1678;50.94845400;5.30809100;2022-08-02T11:17:12;1.00;;;0.97;;
3331;SDS011;1678;50.94845400;5.30809100;2022-08-02T11:22:45;4.10;;;0.83;;
3331;SDS011;1678;50.94845400;5.30809100;2022-08-02T11:25:31;1.53;;;0.80;;
3331;SDS011;1678;50.94845400;5.30809100;2022-08-02T11:28:20;1.37;;;1.27;;
3331;SDS011;1678;50.94845400;5.30809100;2022-08-02T11:30:57;1.13;;;1.13;;
3331;SDS011;1678;50.94845400;5.30809100;2022-08-02T11:33:31;1.20;;;1.20;;
3331;SDS011;1678;50.94845400;5.30809100;2022-08-02T11:36:00;0.90;;;0.60;;
3331;SDS011;1678;50.94845400;5.30809100;2022-08-02T11:38:29;3.60;;;1.30;;
3331;SDS011;1678;50.94845400;5.30809100;2022-08-02T11:40:59;2.13;;;1.07;;
3331;SDS011;1678;50.94845400;5.30809100;2022-08-02T11:43:31;4.33;;;2.03;;
3331;SDS011;1678;50.94845400;5.30809100;2022-08-02T11:46:01;1.00;;;0.90;;
3331;SDS011;1678;50.94845400;5.30809100;2022-08-02T11:48:30;2.83;;;0.73;;
3331;SDS011;1678;50.94845400;5.30809100;2022-08-02T11:51:07;3.50;;;0.80;;
3331;SDS011;1678;50.94845400;5.30809100;2022-08-02T11:53:43;2.60;;;1.33;;
3331;SDS011;1678;50.94845400;5.30809100;2022-08-02T11:56:14;4.83;;;1.00;;
3331;SDS011;1678;50.94845400;5.30809100;2022-08-02T11:59:00;2.53;;;1.47;;
3331;SDS011;1678;50.94845400;5.30809100;2022-08-02T12:01:30;1.33;;;1.23;;
3331;SDS011;1678;50.94845400;5.30809100;2022-08-02T12:04:11;1.00;;;1.00;;
3331;SDS011;1678;50.94845400;5.30809100;2022-08-02T12:06:43;0.97;;;0.77;;
3331;SDS011;1678;50.94845400;5.30809100;2022-08-02T12:09:21;2.37;;;1.00;;
3331;SDS011;1678;50.94845400;5.30809100;2022-08-02T12:11:51;6.47;;;0.97;;
3331;SDS011;1678;50.94845400;5.30809100;2022-08-02T12:14:19;5.70;;;1.23;;
3331;SDS011;1678;50.94845400;5.30809100;2022-08-02T12:16:48;0.63;;;0.60;;
3331;SDS011;1678;50.94845400;5.30809100;2022-08-02T12:19:35;0.97;;;0.97;;
3331;SDS011;1678;50.94845400;5.30809100;2022-08-02T12:22:06;1.00;;;1.00;;
3331;SDS011;1678;50.94845400;5.30809100;2022-08-02T12:24:36;1.30;;;1.20;;
3331;SDS011;1678;50.94845400;5.30809100;2022-08-02T12:27:06;0.90;;;0.90;;
3331;SDS011;1678;50.94845400;5.30809100;2022-08-02T12:29:35;0.80;;;0.80;;
3331;SDS011;1678;50.94845400;5.30809100;2022-08-02T12:32:24;2.27;;;0.93;;
3331;SDS011;1678;50.94845400;5.30809100;2022-08-02T12:35:02;2.40;;;0.83;;
3331;SDS011;1678;50.94845400;5.30809100;2022-08-02T12:37:32;1.00;;;1.00;;
3331;SDS011;1678;50.94845400;5.30809100;2022-08-02T12:40:16;1.47;;;1.40;;
3331;SDS011;1678;50.94845400;5.30809100;2022-08-02T12:42:53;1.50;;;1.40;;
3331;SDS011;1678;50.94845400;5.30809100;2022-08-02T12:45:24;1.00;;;1.00;;
3331;SDS011;1678;50.94845400;5.30809100;2022-08-02T12:48:08;1.57;;;0.70;;
3331;SDS011;1678;50.94845400;5.30809100;2022-08-02T12:50:37;2.10;;;1.30;;
3331;SDS011;1678;50.94845400;5.30809100;2022-08-02T12:53:06;2.77;;;1.20;;
3331;SDS011;1678;50.94845400;5.30809100;2022-08-02T12:55:35;0.90;;;0.90;;
3331;SDS011;1678;50.94845400;5.30809100;2022-08-02T12:58:30;1.23;;;1.13;;
3331;SDS011;1678;50.94845400;5.30809100;2022-08-02T13:01:12;1.30;;;1.20;;
3331;SDS011;1678;50.94845400;5.30809100;2022-08-02T13:03:47;1.00;;;1.00;;
3331;SDS011;1678;50.94845400;5.30809100;2022-08-02T13:06:36;1.40;;;1.10;;
3331;SDS011;1678;50.94845400;5.30809100;2022-08-02T13:09:14;0.70;;;0.70;;
3331;SDS011;1678;50.94845400;5.30809100;2022-08-02T13:11:43;0.80;;;0.80;;
3331;SDS011;1678;50.94845400;5.30809100;2022-08-02T13:14:13;1.07;;;1.07;;
3331;SDS011;1678;50.94845400;5.30809100;2022-08-02T13:16:42;2.10;;;1.30;;
3331;SDS011;1678;50.94845400;5.30809100;2022-08-02T13:19:11;1.20;;;1.20;;
3331;SDS011;1678;50.94845400;5.30809100;2022-08-02T13:21:42;1.20;;;1.10;;
3331;SDS011;1678;50.94845400;5.30809100;2022-08-02T13:24:28;0.70;;;0.70;;
3331;SDS011;1678;50.94845400;5.30809100;2022-08-02T13:27:06;0.90;;;0.90;;
3331;SDS011;1678;50.94845400;5.30809100;2022-08-02T13:29:36;1.57;;;1.47;;
3331;SDS011;1678;50.94845400;5.30809100;2022-08-02T13:32:04;1.30;;;1.20;;
3331;SDS011;1678;50.94845400;5.30809100;2022-08-02T13:34:33;0.80;;;0.80;;
3331;SDS011;1678;50.94845400;5.30809100;2022-08-02T13:37:01;1.03;;;1.03;;
3331;SDS011;1678;50.94845400;5.30809100;2022-08-02T13:39:30;1.60;;;1.20;;
3331;SDS011;1678;50.94845400;5.30809100;2022-08-02T13:41:59;0.93;;;0.93;;
3331;SDS011;1678;50.94845400;5.30809100;2022-08-02T13:44:27;0.93;;;0.93;;
3331;SDS011;1678;50.94845400;5.30809100;2022-08-02T13:46:56;1.10;;;0.80;;
3331;SDS011;1678;50.94845400;5.30809100;2022-08-02T13:49:24;1.40;;;1.00;;
3331;SDS011;1678;50.94845400;5.30809100;2022-08-02T13:52:12;0.60;;;0.60;;